createdAt,value
2022-11-15T00:00:10.650Z,191.10
2022-11-15T00:01:10.653Z,191.30
2022-11-15T00:02:10.667Z,177.50
2022-11-15T00:03:10.623Z,178.60
2022-11-15T00:04:10.608Z,181.60
2022-11-15T00:05:10.600Z,169.40
2022-11-15T00:06:10.593Z,176.80
2022-11-15T00:07:17.948Z,191.70
2022-11-15T00:08:10.600Z,178.80
2022-11-15T00:09:10.560Z,182.50
2022-11-15T00:10:10.549Z,170.80
2022-11-15T00:11:10.535Z,176.40
2022-11-15T00:12:10.522Z,186.70
2022-11-15T00:13:10.512Z,182.80
2022-11-15T00:14:10.503Z,186.40
2022-11-15T00:15:10.491Z,187.20
2022-11-15T00:16:10.478Z,182.00
2022-11-15T00:17:10.466Z,198.40
2022-11-15T00:18:10.457Z,182.90
2022-11-15T00:19:10.447Z,191.90
2022-11-15T00:20:10.437Z,198.60
2022-11-15T00:21:10.421Z,183.60
2022-11-15T00:22:10.412Z,178.90
2022-11-15T00:23:10.405Z,176.60
2022-11-15T00:24:10.394Z,190.30
2022-11-15T00:25:10.381Z,182.10
2022-11-15T00:26:10.371Z,187.70
2022-11-15T00:27:10.362Z,190.40
2022-11-15T00:28:10.346Z,192.50
2022-11-15T00:29:10.338Z,177.90
2022-11-15T00:30:10.328Z,199.50
2022-11-15T00:31:10.314Z,193.30
2022-11-15T00:32:10.300Z,189.10
2022-11-15T00:33:10.290Z,187.40
2022-11-15T00:34:10.279Z,194.50
2022-11-15T00:35:10.274Z,198.90
2022-11-15T00:36:10.254Z,180.80
2022-11-15T00:37:10.248Z,182.10
2022-11-15T00:38:10.238Z,206.60
2022-11-15T00:39:10.228Z,186.90
2022-11-15T00:40:10.234Z,188.20
2022-11-15T00:41:10.420Z,181.00
2022-11-15T00:42:10.191Z,188.70
2022-11-15T00:43:10.175Z,185.80
2022-11-15T00:44:10.170Z,198.50
2022-11-15T00:45:10.156Z,190.70
2022-11-15T00:46:10.146Z,194.10
2022-11-15T00:47:10.134Z,182.90
2022-11-15T00:48:10.124Z,201.90
2022-11-15T00:49:10.232Z,188.00
2022-11-15T00:50:14.848Z,199.10
2022-11-15T00:51:10.105Z,199.50
2022-11-15T00:52:10.079Z,191.60
2022-11-15T00:53:10.069Z,203.90
2022-11-15T00:54:10.060Z,190.30
2022-11-15T00:55:10.047Z,196.80
2022-11-15T00:56:10.033Z,200.00
2022-11-15T00:57:10.028Z,202.30
2022-11-15T00:58:10.010Z,202.60
2022-11-15T00:59:10.001Z,213.50
2022-11-15T01:00:09.991Z,212.00
2022-11-15T01:01:10.045Z,203.90
2022-11-15T01:02:09.967Z,213.10
2022-11-15T01:03:09.958Z,198.30
2022-11-15T01:04:09.943Z,192.50
2022-11-15T01:05:09.933Z,207.70
2022-11-15T01:06:09.924Z,196.70
2022-11-15T01:07:09.948Z,194.70
2022-11-15T01:08:09.900Z,216.50
2022-11-15T01:09:09.898Z,204.60
2022-11-15T01:10:09.878Z,212.00
2022-11-15T01:11:09.862Z,205.00
2022-11-15T01:12:09.859Z,202.60
2022-11-15T01:13:09.853Z,196.20
2022-11-15T01:14:09.840Z,193.50
2022-11-15T01:15:09.839Z,210.50
2022-11-15T01:16:09.809Z,231.70
2022-11-15T01:17:09.797Z,207.20
2022-11-15T01:18:09.787Z,211.50
2022-11-15T01:19:09.777Z,213.10
2022-11-15T01:20:09.766Z,214.80
2022-11-15T01:21:09.754Z,208.60
2022-11-15T01:22:09.742Z,208.50
2022-11-15T01:23:09.732Z,218.30
2022-11-15T01:24:09.721Z,210.90
2022-11-15T01:25:09.709Z,216.00
2022-11-15T01:26:09.697Z,232.90
2022-11-15T01:27:09.699Z,214.80
2022-11-15T01:28:09.674Z,211.60
2022-11-15T01:29:09.667Z,220.90
2022-11-15T01:30:09.660Z,215.00
2022-11-15T01:31:09.642Z,215.20
2022-11-15T01:32:09.627Z,220.70
2022-11-15T01:33:09.619Z,215.60
2022-11-15T01:34:09.608Z,217.80
2022-11-15T01:35:09.599Z,213.10
2022-11-15T01:36:09.586Z,234.90
2022-11-15T01:37:09.578Z,219.20
2022-11-15T01:38:09.562Z,205.40
2022-11-15T01:39:09.553Z,218.00
2022-11-15T01:40:09.539Z,203.00
2022-11-15T01:41:09.530Z,196.90
2022-11-15T01:42:09.522Z,199.30
2022-11-15T01:43:09.508Z,203.20
2022-11-15T01:44:09.502Z,200.50
2022-11-15T01:45:09.486Z,202.50
2022-11-15T01:46:09.473Z,203.00
2022-11-15T01:47:09.464Z,201.50
2022-11-15T01:48:09.451Z,211.50
2022-11-15T01:49:09.445Z,205.90
2022-11-15T01:50:09.452Z,211.50
2022-11-15T01:51:09.419Z,194.30
2022-11-15T01:52:09.406Z,203.00
2022-11-15T01:53:09.396Z,199.60
2022-11-15T01:54:09.385Z,190.90
2022-11-15T01:55:09.379Z,182.00
2022-11-15T01:56:09.361Z,186.00
2022-11-15T01:57:09.352Z,191.20
2022-11-15T01:58:09.340Z,184.90
2022-11-15T01:59:09.330Z,189.70
2022-11-15T02:00:09.320Z,197.10
2022-11-15T02:01:09.510Z,189.00
2022-11-15T02:02:09.294Z,187.10
2022-11-15T02:03:09.287Z,188.30
2022-11-15T02:04:09.273Z,190.20
2022-11-15T02:05:09.258Z,191.00
2022-11-15T02:06:09.252Z,190.60
2022-11-15T02:07:09.285Z,183.00
2022-11-15T02:08:09.229Z,182.70
2022-11-15T02:09:09.219Z,185.20
2022-11-15T02:10:09.211Z,193.00
2022-11-15T02:11:09.197Z,181.30
2022-11-15T02:12:09.188Z,195.30
2022-11-15T02:13:09.180Z,196.60
2022-11-15T02:14:09.162Z,178.70
2022-11-15T02:15:09.150Z,183.70
2022-11-15T02:16:09.145Z,172.40
2022-11-15T02:17:09.130Z,187.70
2022-11-15T02:18:09.119Z,181.80
2022-11-15T02:19:09.113Z,175.90
2022-11-15T02:20:09.095Z,188.80
2022-11-15T02:21:09.084Z,189.10
2022-11-15T02:22:09.074Z,189.20
2022-11-15T02:23:09.065Z,183.60
2022-11-15T02:24:09.053Z,194.20
2022-11-15T02:25:09.041Z,190.40
2022-11-15T02:26:09.029Z,198.90
2022-11-15T02:27:09.019Z,185.20
2022-11-15T02:28:09.004Z,185.60
2022-11-15T02:29:08.993Z,189.60
2022-11-15T02:30:08.987Z,188.30
2022-11-15T02:31:08.977Z,191.50
2022-11-15T02:32:08.962Z,192.00
2022-11-15T02:33:08.950Z,192.30
2022-11-15T02:34:08.943Z,190.50
2022-11-15T02:35:08.929Z,201.70
2022-11-15T02:36:08.917Z,200.00
2022-11-15T02:37:08.908Z,196.20
2022-11-15T02:38:08.901Z,201.00
2022-11-15T02:39:08.886Z,197.80
2022-11-15T02:40:08.875Z,194.40
2022-11-15T02:41:08.861Z,196.20
2022-11-15T02:42:08.853Z,185.10
2022-11-15T02:43:08.840Z,194.30
2022-11-15T02:44:08.830Z,194.30
2022-11-15T02:45:08.862Z,196.50
2022-11-15T02:46:08.804Z,222.50
2022-11-15T02:47:08.796Z,205.40
2022-11-15T02:48:08.782Z,203.30
2022-11-15T02:49:08.775Z,205.10
2022-11-15T02:50:08.759Z,207.70
2022-11-15T02:51:08.750Z,201.50
2022-11-15T02:52:08.737Z,212.30
2022-11-15T02:53:08.723Z,208.20
2022-11-15T02:54:08.714Z,196.80
2022-11-15T02:55:08.707Z,206.80
2022-11-15T02:56:08.692Z,207.90
2022-11-15T02:57:08.681Z,202.40
2022-11-15T02:58:08.683Z,207.00
2022-11-15T02:59:08.660Z,211.60
2022-11-15T03:00:08.649Z,205.70
2022-11-15T03:01:08.687Z,199.70
2022-11-15T03:02:08.631Z,201.80
2022-11-15T03:03:08.620Z,195.60
2022-11-15T03:04:08.604Z,184.80
2022-11-15T03:05:08.594Z,197.60
2022-11-15T03:06:08.584Z,177.60
2022-11-15T03:07:08.609Z,185.60
2022-11-15T03:08:08.558Z,188.40
2022-11-15T03:09:08.548Z,189.90
2022-11-15T03:10:08.562Z,193.50
2022-11-15T03:11:08.536Z,186.80
2022-11-15T03:12:08.513Z,189.20
2022-11-15T03:13:08.502Z,187.40
2022-11-15T03:14:08.499Z,190.30
2022-11-15T03:15:08.480Z,182.70
2022-11-15T03:16:08.465Z,184.50
2022-11-15T03:17:08.457Z,196.60
2022-11-15T03:18:08.447Z,196.00
2022-11-15T03:19:08.436Z,181.00
2022-11-15T03:20:08.428Z,183.10
2022-11-15T03:21:08.412Z,191.00
2022-11-15T03:22:08.402Z,180.40
2022-11-15T03:23:08.388Z,189.00
2022-11-15T03:24:08.384Z,213.30
2022-11-15T03:25:08.365Z,198.00
2022-11-15T03:26:08.356Z,193.20
2022-11-15T03:27:08.347Z,195.80
2022-11-15T03:28:08.336Z,204.30
2022-11-15T03:29:08.320Z,196.70
2022-11-15T03:30:08.311Z,207.30
2022-11-15T03:31:08.300Z,203.90
2022-11-15T03:32:08.287Z,203.20
2022-11-15T03:33:08.276Z,193.40
2022-11-15T03:34:08.265Z,189.80
2022-11-15T03:35:08.255Z,197.10
2022-11-15T03:36:08.241Z,196.70
2022-11-15T03:37:08.233Z,193.60
2022-11-15T03:38:08.245Z,192.90
2022-11-15T03:39:08.209Z,197.90
2022-11-15T03:40:08.196Z,197.70
2022-11-15T03:41:08.186Z,191.80
2022-11-15T03:42:08.184Z,189.90
2022-11-15T03:43:08.162Z,179.50
2022-11-15T03:44:08.153Z,206.50
2022-11-15T03:45:08.150Z,190.90
2022-11-15T03:46:08.134Z,190.30
2022-11-15T03:47:08.118Z,192.80
2022-11-15T03:48:08.108Z,198.20
2022-11-15T03:49:08.094Z,206.40
2022-11-15T03:50:08.084Z,193.40
2022-11-15T03:51:08.078Z,201.30
2022-11-15T03:52:08.062Z,194.50
2022-11-15T03:53:08.056Z,187.30
2022-11-15T03:54:08.042Z,192.00
2022-11-15T03:55:08.031Z,190.60
2022-11-15T03:56:08.018Z,194.00
2022-11-15T03:57:08.006Z,187.10
2022-11-15T03:58:07.997Z,185.40
2022-11-15T03:59:07.989Z,180.10
2022-11-15T04:00:07.970Z,180.10
2022-11-15T04:01:07.988Z,184.10
2022-11-15T04:02:07.951Z,191.10
2022-11-15T04:03:07.938Z,180.50
2022-11-15T04:04:07.926Z,182.60
2022-11-15T04:05:07.915Z,189.00
2022-11-15T04:06:07.907Z,188.80
2022-11-15T04:07:07.931Z,173.90
2022-11-15T04:08:07.900Z,178.20
2022-11-15T04:09:07.870Z,169.10
2022-11-15T04:10:07.859Z,171.00
2022-11-15T04:11:07.847Z,174.50
2022-11-15T04:12:07.890Z,171.70
2022-11-15T04:13:07.825Z,174.30
2022-11-15T04:14:07.821Z,166.30
2022-11-15T04:15:07.830Z,170.00
2022-11-15T04:16:07.791Z,175.50
2022-11-15T04:17:07.773Z,155.40
2022-11-15T04:18:07.768Z,160.40
2022-11-15T04:19:07.757Z,169.30
2022-11-15T04:20:07.763Z,174.00
2022-11-15T04:21:07.730Z,165.60
2022-11-15T04:22:07.723Z,169.00
2022-11-15T04:23:07.713Z,166.20
2022-11-15T04:24:07.700Z,168.70
2022-11-15T04:25:07.721Z,175.80
2022-11-15T04:26:07.678Z,193.00
2022-11-15T04:27:07.669Z,176.50
2022-11-15T04:28:07.658Z,184.00
2022-11-15T04:29:07.647Z,185.00
2022-11-15T04:30:07.633Z,177.60
2022-11-15T04:31:07.624Z,174.00
2022-11-15T04:32:07.615Z,178.10
2022-11-15T04:33:07.605Z,175.30
2022-11-15T04:34:07.591Z,169.50
2022-11-15T04:35:07.589Z,171.80
2022-11-15T04:36:07.569Z,175.60
2022-11-15T04:37:07.570Z,174.80
2022-11-15T04:38:07.557Z,181.40
2022-11-15T04:39:07.533Z,176.30
2022-11-15T04:40:07.526Z,181.40
2022-11-15T04:41:07.510Z,170.60
2022-11-15T04:42:07.501Z,166.70
2022-11-15T04:43:07.487Z,182.90
2022-11-15T04:44:07.480Z,181.10
2022-11-15T04:45:07.463Z,180.80
2022-11-15T04:46:07.459Z,178.70
2022-11-15T04:47:07.445Z,184.50
2022-11-15T04:48:07.430Z,178.00
2022-11-15T04:49:07.430Z,178.20
2022-11-15T04:50:07.413Z,188.50
2022-11-15T04:51:07.396Z,186.60
2022-11-15T04:52:07.384Z,187.50
2022-11-15T04:53:07.376Z,186.70
2022-11-15T04:54:07.371Z,182.30
2022-11-15T04:55:08.450Z,186.00
2022-11-15T04:56:07.341Z,175.20
2022-11-15T04:57:07.359Z,181.90
2022-11-15T04:58:07.320Z,176.60
2022-11-15T04:59:07.304Z,182.00
2022-11-15T05:00:07.296Z,177.60
2022-11-15T05:01:07.407Z,174.60
2022-11-15T05:02:07.274Z,167.10
2022-11-15T05:03:07.275Z,174.80
2022-11-15T05:04:07.256Z,176.80
2022-11-15T05:05:07.241Z,178.10
2022-11-15T05:06:07.233Z,181.00
2022-11-15T05:07:07.253Z,182.30
2022-11-15T05:08:07.206Z,185.30
2022-11-15T05:09:07.194Z,177.00
2022-11-15T05:10:07.186Z,171.90
2022-11-15T05:11:07.169Z,168.40
2022-11-15T05:12:07.162Z,179.70
2022-11-15T05:13:07.152Z,170.20
2022-11-15T05:14:07.160Z,175.80
2022-11-15T05:15:07.130Z,163.00
2022-11-15T05:16:07.116Z,165.40
2022-11-15T05:17:07.113Z,180.90
2022-11-15T05:18:07.098Z,173.60
2022-11-15T05:19:07.083Z,170.20
2022-11-15T05:20:07.072Z,162.70
2022-11-15T05:21:07.060Z,167.20
2022-11-15T05:22:07.051Z,171.20
2022-11-15T05:23:07.036Z,175.50
2022-11-15T05:24:07.027Z,175.50
2022-11-15T05:25:07.015Z,163.30
2022-11-15T05:26:09.339Z,170.40
2022-11-15T05:27:07.031Z,166.80
2022-11-15T05:28:07.012Z,166.80
2022-11-15T05:29:06.972Z,179.70
2022-11-15T05:30:06.961Z,165.50
2022-11-15T05:31:06.952Z,168.70
2022-11-15T05:32:06.938Z,161.50
2022-11-15T05:33:06.926Z,165.90
2022-11-15T05:34:06.918Z,168.70
2022-11-15T05:35:06.910Z,163.30
2022-11-15T05:36:06.892Z,177.90
2022-11-15T05:37:06.883Z,176.40
2022-11-15T05:38:06.870Z,175.80
2022-11-15T05:39:08.918Z,169.90
2022-11-15T05:40:06.846Z,174.60
2022-11-15T05:41:06.840Z,174.00
2022-11-15T05:42:06.825Z,171.80
2022-11-15T05:43:06.815Z,173.10
2022-11-15T05:44:06.862Z,163.10
2022-11-15T05:45:06.868Z,167.50
2022-11-15T05:46:06.784Z,164.50
2022-11-15T05:47:06.768Z,171.10
2022-11-15T05:48:06.752Z,166.80
2022-11-15T05:49:06.747Z,172.40
2022-11-15T05:50:06.736Z,180.00
2022-11-15T05:51:06.726Z,194.10
2022-11-15T05:52:06.712Z,180.40
2022-11-15T05:53:06.701Z,187.70
2022-11-15T05:54:06.699Z,183.30
2022-11-15T05:55:06.686Z,190.20
2022-11-15T05:56:06.670Z,169.90
2022-11-15T05:57:06.656Z,171.90
2022-11-15T05:58:06.644Z,160.00
2022-11-15T05:59:06.634Z,174.30
2022-11-15T06:00:06.617Z,181.00
2022-11-15T06:01:06.610Z,166.50
2022-11-15T06:02:06.664Z,169.70
2022-11-15T06:03:06.588Z,175.70
2022-11-15T06:04:06.576Z,171.90
2022-11-15T06:05:06.568Z,166.80
2022-11-15T06:06:06.588Z,182.60
2022-11-15T06:07:06.575Z,165.20
2022-11-15T06:08:06.530Z,161.60
2022-11-15T06:09:06.531Z,163.90
2022-11-15T06:10:06.510Z,171.20
2022-11-15T06:11:06.500Z,176.40
2022-11-15T06:12:06.490Z,172.90
2022-11-15T06:13:06.474Z,173.00
2022-11-15T06:14:06.466Z,168.90
2022-11-15T06:15:06.448Z,168.90
2022-11-15T06:16:06.438Z,172.90
2022-11-15T06:17:11.131Z,184.00
2022-11-15T06:18:06.417Z,183.20
2022-11-15T06:19:06.420Z,175.80
2022-11-15T06:20:06.396Z,180.30
2022-11-15T06:21:06.383Z,172.00
2022-11-15T06:22:06.372Z,179.20
2022-11-15T06:23:06.365Z,162.50
2022-11-15T06:24:06.348Z,168.40
2022-11-15T06:25:06.338Z,166.80
2022-11-15T06:26:06.325Z,167.50
2022-11-15T06:27:06.314Z,173.10
2022-11-15T06:28:06.303Z,163.00
2022-11-15T06:29:06.294Z,176.40
2022-11-15T06:30:06.281Z,185.00
2022-11-15T06:31:06.269Z,174.50
2022-11-15T06:32:06.265Z,174.00
2022-11-15T06:33:06.246Z,185.70
2022-11-15T06:34:06.240Z,178.10
2022-11-15T06:35:06.224Z,192.00
2022-11-15T06:36:06.220Z,179.10
2022-11-15T06:37:06.197Z,179.50
2022-11-15T06:38:06.191Z,155.70
2022-11-15T06:39:06.181Z,160.60
2022-11-15T06:40:06.165Z,161.00
2022-11-15T06:41:06.159Z,167.60
2022-11-15T06:42:06.146Z,173.30
2022-11-15T06:43:06.131Z,167.70
2022-11-15T06:44:06.120Z,167.10
2022-11-15T06:45:06.108Z,181.20
2022-11-15T06:46:06.097Z,172.00
2022-11-15T06:47:06.087Z,176.10
2022-11-15T06:48:06.073Z,185.20
2022-11-15T06:49:09.575Z,177.40
2022-11-15T06:50:06.053Z,166.50
2022-11-15T06:51:06.059Z,167.70
2022-11-15T06:52:06.029Z,159.80
2022-11-15T06:53:06.017Z,165.50
2022-11-15T06:54:06.008Z,167.20
2022-11-15T06:55:05.998Z,170.20
2022-11-15T06:56:05.983Z,171.10
2022-11-15T06:57:05.972Z,175.00
2022-11-15T06:58:05.959Z,166.90
2022-11-15T06:59:05.951Z,178.90
2022-11-15T07:00:05.940Z,181.10
2022-11-15T07:01:05.999Z,166.70
2022-11-15T07:02:05.915Z,171.90
2022-11-15T07:03:05.904Z,163.00
2022-11-15T07:04:05.892Z,170.90
2022-11-15T07:05:05.880Z,163.80
2022-11-15T07:06:07.747Z,154.10
2022-11-15T07:07:05.908Z,158.90
2022-11-15T07:08:05.848Z,165.30
2022-11-15T07:09:05.837Z,158.20
2022-11-15T07:10:05.822Z,147.40
2022-11-15T07:11:05.815Z,146.20
2022-11-15T07:12:07.917Z,137.20
2022-11-15T07:13:05.790Z,147.60
2022-11-15T07:14:05.785Z,142.00
2022-11-15T07:15:05.772Z,139.20
2022-11-15T07:16:05.757Z,142.90
2022-11-15T07:17:05.745Z,149.60
2022-11-15T07:18:05.736Z,139.80
2022-11-15T07:19:05.731Z,144.50
2022-11-15T07:20:05.711Z,140.90
2022-11-15T07:21:05.700Z,142.50
2022-11-15T07:22:05.688Z,131.60
2022-11-15T07:23:05.677Z,140.00
2022-11-15T07:24:05.663Z,141.60
2022-11-15T07:25:05.650Z,139.80
2022-11-15T07:26:05.717Z,134.30
2022-11-15T07:27:05.634Z,136.50
2022-11-15T07:28:05.620Z,134.90
2022-11-15T07:29:05.610Z,135.60
2022-11-15T07:30:05.601Z,134.60
2022-11-15T07:31:05.591Z,129.60
2022-11-15T07:32:05.585Z,134.30
2022-11-15T07:33:05.565Z,132.80
2022-11-15T07:34:05.558Z,129.00
2022-11-15T07:35:05.546Z,134.30
2022-11-15T07:36:05.535Z,126.70
2022-11-15T07:37:05.536Z,119.70
2022-11-15T07:38:05.511Z,113.00
2022-11-15T07:39:05.499Z,110.90
2022-11-15T07:40:05.491Z,112.70
2022-11-15T07:41:05.477Z,112.00
2022-11-15T07:42:05.467Z,109.90
2022-11-15T07:43:05.455Z,107.50
2022-11-15T07:44:05.445Z,106.80
2022-11-15T07:45:05.433Z,104.00
2022-11-15T07:46:05.434Z,105.40
2022-11-15T07:47:05.418Z,99.30
2022-11-15T07:48:05.401Z,100.10
2022-11-15T07:49:05.388Z,99.40
2022-11-15T07:50:05.378Z,99.40
2022-11-15T07:51:08.788Z,99.60
2022-11-15T07:52:05.358Z,98.10
2022-11-15T07:53:05.345Z,103.10
2022-11-15T07:54:05.374Z,101.50
2022-11-15T07:55:05.332Z,104.70
2022-11-15T07:56:05.311Z,100.30
2022-11-15T07:57:07.534Z,101.10
2022-11-15T07:58:05.294Z,97.90
2022-11-15T07:59:05.281Z,99.40
2022-11-15T08:00:05.281Z,99.00
2022-11-15T08:01:05.451Z,92.70
2022-11-15T08:02:05.361Z,93.60
2022-11-15T08:03:05.241Z,90.00
2022-11-15T08:04:05.224Z,90.10
2022-11-15T08:05:05.226Z,89.70
2022-11-15T08:06:05.203Z,90.70
2022-11-15T08:07:05.232Z,85.10
2022-11-15T08:08:05.190Z,80.20
2022-11-15T08:09:05.172Z,80.10
2022-11-15T08:10:05.240Z,80.10
2022-11-15T08:11:05.169Z,79.20
2022-11-15T08:12:05.146Z,71.80
2022-11-15T08:13:05.178Z,72.50
2022-11-15T08:14:05.124Z,70.40
2022-11-15T08:15:05.113Z,68.50
2022-11-15T08:16:05.098Z,69.40
2022-11-15T08:17:05.093Z,71.80
2022-11-15T08:18:05.074Z,65.10
2022-11-15T08:19:05.071Z,70.30
2022-11-15T08:20:05.060Z,69.60
2022-11-15T08:21:05.041Z,69.90
2022-11-15T08:22:05.034Z,69.10
2022-11-15T08:23:05.023Z,74.60
2022-11-15T08:24:05.013Z,71.10
2022-11-15T08:25:05.009Z,72.70
2022-11-15T08:26:05.003Z,69.60
2022-11-15T08:27:05.060Z,69.10
2022-11-15T08:28:04.970Z,64.40
2022-11-15T08:29:04.960Z,68.90
2022-11-15T08:30:04.953Z,68.00
2022-11-15T08:31:04.937Z,67.60
2022-11-15T08:32:04.929Z,66.20
2022-11-15T08:33:04.923Z,66.60
2022-11-15T08:34:04.910Z,65.20
2022-11-15T08:35:04.901Z,64.70
2022-11-15T08:36:04.882Z,68.70
2022-11-15T08:37:04.872Z,66.10
2022-11-15T08:38:04.880Z,64.00
2022-11-15T08:39:04.855Z,63.10
2022-11-15T08:40:04.848Z,61.30
2022-11-15T08:41:04.847Z,60.70
2022-11-15T08:42:04.827Z,58.30
2022-11-15T08:43:04.817Z,60.10
2022-11-15T08:44:04.805Z,55.10
2022-11-15T08:45:04.793Z,56.40
2022-11-15T08:46:04.785Z,53.20
2022-11-15T08:47:04.774Z,56.00
2022-11-15T08:48:04.766Z,52.20
2022-11-15T08:49:04.754Z,48.70
2022-11-15T08:50:04.749Z,51.90
2022-11-15T08:51:04.856Z,53.20
2022-11-15T08:52:04.722Z,52.70
2022-11-15T08:53:04.712Z,53.50
2022-11-15T08:54:04.707Z,48.80
2022-11-15T08:55:04.690Z,55.00
2022-11-15T08:56:04.681Z,54.50
2022-11-15T08:57:04.672Z,58.70
2022-11-15T08:58:04.665Z,52.30
2022-11-15T08:59:04.652Z,48.00
2022-11-15T09:00:04.652Z,45.20
2022-11-15T09:01:04.683Z,44.50
2022-11-15T09:02:04.681Z,40.20
2022-11-15T09:03:04.614Z,41.20
2022-11-15T09:04:04.601Z,38.70
2022-11-15T09:05:04.592Z,38.00
2022-11-15T09:06:04.584Z,39.00
2022-11-15T09:07:04.602Z,40.10
2022-11-15T09:08:19.045Z,41.10
2022-11-15T09:09:04.556Z,36.20
2022-11-15T09:10:04.540Z,40.50
2022-11-15T09:11:04.531Z,40.00
2022-11-15T09:12:04.524Z,39.80
2022-11-15T09:13:04.515Z,42.90
2022-11-15T09:14:04.504Z,41.00
2022-11-15T09:15:04.496Z,41.40
2022-11-15T09:16:04.483Z,41.20
2022-11-15T09:17:04.474Z,38.70
2022-11-15T09:18:04.469Z,36.90
2022-11-15T09:19:08.933Z,39.10
2022-11-15T09:20:04.446Z,38.60
2022-11-15T09:21:04.438Z,38.40
2022-11-15T09:22:04.427Z,38.40
2022-11-15T09:23:04.417Z,37.60
2022-11-15T09:24:04.406Z,37.70
2022-11-15T09:25:08.526Z,37.80
2022-11-15T09:26:04.395Z,37.50
2022-11-15T09:27:04.379Z,37.30
2022-11-15T09:28:04.367Z,35.20
2022-11-15T09:29:04.358Z,36.30
2022-11-15T09:30:04.351Z,37.80
2022-11-15T09:31:04.349Z,37.50
2022-11-15T09:32:04.329Z,36.20
2022-11-15T09:33:04.320Z,35.90
2022-11-15T09:34:04.308Z,37.00
2022-11-15T09:35:04.299Z,40.10
2022-11-15T09:36:04.292Z,37.70
2022-11-15T09:37:04.283Z,36.60
2022-11-15T09:38:04.278Z,35.90
2022-11-15T09:39:04.266Z,39.90
2022-11-15T09:40:04.256Z,37.40
2022-11-15T09:41:04.245Z,34.30
2022-11-15T09:42:04.244Z,33.90
2022-11-15T09:43:04.234Z,35.30
2022-11-15T09:44:04.215Z,34.50
2022-11-15T09:45:04.203Z,36.40
2022-11-15T09:46:04.199Z,34.60
2022-11-15T09:47:04.187Z,36.20
2022-11-15T09:48:04.180Z,34.90
2022-11-15T09:49:04.170Z,32.70
2022-11-15T09:50:04.162Z,33.70
2022-11-15T09:51:04.155Z,36.00
2022-11-15T09:52:04.145Z,34.20
2022-11-15T09:53:04.132Z,33.90
2022-11-15T09:54:51.070Z,34.30
2022-11-15T09:55:04.116Z,32.40
2022-11-15T09:56:04.107Z,33.80
2022-11-15T09:57:04.182Z,32.70
2022-11-15T09:58:04.094Z,32.50
2022-11-15T09:59:04.077Z,30.10
2022-11-15T10:00:30.915Z,30.80
2022-11-15T10:01:04.096Z,33.20
2022-11-15T10:02:11.797Z,34.70
2022-11-15T10:03:04.042Z,30.30
2022-11-15T10:04:07.837Z,30.30
2022-11-15T10:05:04.017Z,32.40
2022-11-15T10:06:04.022Z,32.50
2022-11-15T10:07:04.088Z,30.60
2022-11-15T10:08:03.994Z,31.90
2022-11-15T10:09:03.991Z,29.10
2022-11-15T10:10:04.269Z,29.70
2022-11-15T10:12:03.956Z,27.50
2022-11-15T10:13:03.948Z,30.30
2022-11-15T10:14:03.942Z,32.80
2022-11-15T10:15:03.935Z,32.50
2022-11-15T10:16:03.921Z,30.00
2022-11-15T10:17:03.914Z,28.30
2022-11-15T10:18:03.902Z,30.10
2022-11-15T10:19:03.896Z,30.10
2022-11-15T10:20:05.961Z,29.60
2022-11-15T10:21:03.877Z,29.10
2022-11-15T10:22:03.875Z,29.40
2022-11-15T10:23:03.860Z,29.60
2022-11-15T10:24:03.853Z,31.00
2022-11-15T10:25:03.844Z,26.90
2022-11-15T10:26:06.804Z,27.30
2022-11-15T10:27:03.851Z,27.70
2022-11-15T10:28:03.816Z,31.50
2022-11-15T10:29:03.803Z,28.50
2022-11-15T10:30:03.802Z,29.30
2022-11-15T10:31:03.787Z,27.50
2022-11-15T10:32:03.782Z,28.50
2022-11-15T10:33:03.774Z,27.80
2022-11-15T10:34:03.764Z,28.10
2022-11-15T10:35:03.762Z,28.00
2022-11-15T10:36:03.748Z,28.30
2022-11-15T10:37:03.740Z,26.90
2022-11-15T10:38:03.729Z,25.00
2022-11-15T10:39:03.722Z,29.20
2022-11-15T10:40:03.713Z,25.80
2022-11-15T10:41:03.708Z,27.70
2022-11-15T10:42:09.558Z,24.80
2022-11-15T10:43:03.688Z,24.40
2022-11-15T10:44:03.675Z,26.70
2022-11-15T10:45:03.668Z,26.20
2022-11-15T10:46:24.653Z,24.30
2022-11-15T10:47:03.654Z,25.80
2022-11-15T10:48:03.651Z,25.70
2022-11-15T10:49:03.636Z,23.80
2022-11-15T10:50:03.630Z,27.30
2022-11-15T10:51:03.617Z,24.80
2022-11-15T10:52:03.618Z,25.20
2022-11-15T10:53:03.602Z,26.70
2022-11-15T10:54:07.772Z,26.60
2022-11-15T10:55:03.590Z,27.80
2022-11-15T10:56:03.576Z,25.10
2022-11-15T10:57:03.563Z,23.10
2022-11-15T10:58:03.560Z,25.40
2022-11-15T10:59:03.571Z,24.50
2022-11-15T11:00:03.543Z,22.10
2022-11-15T11:01:03.616Z,22.10
2022-11-15T11:02:03.529Z,24.10
2022-11-15T11:03:03.523Z,25.30
2022-11-15T11:04:03.518Z,21.90
2022-11-15T11:05:03.502Z,23.40
2022-11-15T11:06:03.495Z,24.50
2022-11-15T11:07:03.564Z,24.30
2022-11-15T11:08:03.483Z,23.10
2022-11-15T11:09:03.473Z,24.00
2022-11-15T11:10:03.645Z,24.30
2022-11-15T11:11:04.055Z,26.30
2022-11-15T11:12:03.446Z,24.40
2022-11-15T11:13:03.439Z,25.00
2022-11-15T11:14:03.430Z,23.70
2022-11-15T11:15:03.416Z,25.00
2022-11-15T11:16:03.411Z,25.70
2022-11-15T11:17:03.405Z,22.90
2022-11-15T11:18:03.402Z,25.80
2022-11-15T11:19:03.390Z,23.80
2022-11-15T11:20:03.383Z,24.20
2022-11-15T11:21:03.374Z,24.70
2022-11-15T11:22:03.384Z,27.50
2022-11-15T11:23:03.356Z,24.00
2022-11-15T11:24:03.346Z,25.10
2022-11-15T11:25:03.341Z,24.80
2022-11-15T11:26:03.335Z,22.80
2022-11-15T11:27:03.324Z,24.80
2022-11-15T11:28:03.318Z,24.20
2022-11-15T11:29:03.314Z,25.50
2022-11-15T11:30:03.303Z,26.20
2022-11-15T11:31:03.291Z,24.20
2022-11-15T11:32:03.284Z,22.30
2022-11-15T11:33:03.278Z,25.00
2022-11-15T11:34:03.271Z,24.30
2022-11-15T11:35:03.265Z,26.40
2022-11-15T11:36:03.251Z,25.70
2022-11-15T11:37:03.247Z,25.70
2022-11-15T11:38:03.242Z,25.60
2022-11-15T11:39:03.228Z,25.00
2022-11-15T11:40:09.177Z,24.00
2022-11-15T11:41:03.220Z,25.70
2022-11-15T11:42:03.212Z,25.50
2022-11-15T11:43:03.203Z,25.60
2022-11-15T11:44:03.191Z,25.20
2022-11-15T11:45:03.191Z,24.80
2022-11-15T11:46:03.177Z,24.20
2022-11-15T11:47:03.183Z,24.40
2022-11-15T11:48:03.161Z,23.80
2022-11-15T11:49:03.159Z,25.70
2022-11-15T11:50:03.190Z,24.20
2022-11-15T11:51:03.140Z,24.90
2022-11-15T11:52:03.144Z,27.70
2022-11-15T11:53:04.328Z,23.20
2022-11-15T11:54:03.117Z,26.30
2022-11-15T11:55:03.109Z,23.10
2022-11-15T11:56:03.312Z,24.80
2022-11-15T11:57:03.100Z,24.50
2022-11-15T11:58:03.087Z,25.10
2022-11-15T11:59:03.076Z,23.80
2022-11-15T12:00:03.070Z,23.30
2022-11-15T12:01:03.063Z,25.00
2022-11-15T12:02:03.124Z,24.70
2022-11-15T12:03:03.123Z,24.30
2022-11-15T12:04:03.040Z,24.70
2022-11-15T12:05:03.034Z,23.90
2022-11-15T12:06:03.031Z,24.70
2022-11-15T12:07:03.064Z,24.20
2022-11-15T12:08:04.265Z,25.90
2022-11-15T12:09:03.003Z,25.90
2022-11-15T12:10:03.001Z,23.20
2022-11-15T12:11:02.985Z,26.10
2022-11-15T12:12:02.984Z,24.20
2022-11-15T12:13:02.978Z,23.10
2022-11-15T12:14:02.967Z,27.30
2022-11-15T12:15:02.960Z,26.10
2022-11-15T12:16:06.166Z,22.90
2022-11-15T12:17:02.943Z,27.90
2022-11-15T12:18:02.955Z,25.10
2022-11-15T12:19:02.930Z,27.50
2022-11-15T12:20:03.027Z,26.90
2022-11-15T12:21:02.915Z,29.30
2022-11-15T12:22:02.906Z,27.00
2022-11-15T12:23:02.901Z,26.50
2022-11-15T12:24:02.927Z,24.20
2022-11-15T12:25:02.906Z,24.70
2022-11-15T12:26:02.876Z,23.40
2022-11-15T12:27:02.875Z,26.10
2022-11-15T12:28:02.915Z,27.10
2022-11-15T12:29:08.083Z,25.60
2022-11-15T12:30:02.868Z,22.60
2022-11-15T12:31:02.848Z,24.60
2022-11-15T12:32:02.838Z,24.70
2022-11-15T12:33:02.838Z,24.40
2022-11-15T12:34:07.054Z,25.20
2022-11-15T12:35:02.812Z,23.60
2022-11-15T12:36:02.806Z,23.60
2022-11-15T12:37:02.817Z,22.70
2022-11-15T12:38:02.792Z,29.60